DAL3479 KDFW-KATL
Flight info
| Callsign | DAL3479 |
|---|---|
| Flight time | 1h 33m |
| Altitude | 35000 |
| Route | TRYTN4 LOOSE DCT MEMFS DCT HUTCC DCT KNSAW DCT RUSSA GLAVN2 |
| Aircraft | A321/M-SDE3FGHIRWY/LB1 |
Departure
| Time | 2026-05-05 01:36 |
|---|---|
| Airport | Dallas Fort Worth International Airport (KDFW) |
Arrival
| Time | 2026-05-05 03:09 |
|---|---|
| Airport | Hartsfield Jackson Atlanta International Airport (KATL) |
| Time | Latitude | Longitude | Altitude | Speed | Heading |
|---|---|---|---|---|---|
| 2026-05-05 01:03 | 32.88911 | -97.03543 | 573 ft | 0 kts | 295° |
| 2026-05-05 01:20 | 32.88907 | -97.03532 | 573 ft | 2 kts | 295° |
| 2026-05-05 01:21 | 32.88900 | -97.03516 | 573 ft | 2 kts | 295° |
| 2026-05-05 01:21 | 32.88894 | -97.03500 | 573 ft | 2 kts | 303° |
| 2026-05-05 01:21 | 32.88882 | -97.03490 | 573 ft | 2 kts | 348° |
| 2026-05-05 01:21 | 32.88869 | -97.03490 | 573 ft | 0 kts | 21° |
| 2026-05-05 01:22 | 32.88863 | -97.03494 | 573 ft | 1 kts | 26° |
| 2026-05-05 01:22 | 32.88862 | -97.03494 | 573 ft | 0 kts | 25° |
| 2026-05-05 01:26 | 32.88863 | -97.03494 | 573 ft | 0 kts | 25° |
| 2026-05-05 01:27 | 32.88874 | -97.03487 | 573 ft | 2 kts | 25° |
| 2026-05-05 01:27 | 32.88893 | -97.03477 | 572 ft | 0 kts | 23° |
| 2026-05-05 01:27 | 32.88895 | -97.03477 | 573 ft | 0 kts | 23° |
| 2026-05-05 01:28 | 32.88898 | -97.03474 | 573 ft | 1 kts | 23° |
| 2026-05-05 01:28 | 32.88921 | -97.03464 | 573 ft | 5 kts | 22° |
| 2026-05-05 01:28 | 32.88976 | -97.03436 | 573 ft | 10 kts | 32° |
| 2026-05-05 01:28 | 32.89039 | -97.03363 | 573 ft | 14 kts | 46° |
| 2026-05-05 01:29 | 32.89132 | -97.03319 | 575 ft | 15 kts | 0° |
| 2026-05-05 01:29 | 32.89246 | -97.03319 | 575 ft | 17 kts | 360° |
| 2026-05-05 01:29 | 32.89371 | -97.03320 | 575 ft | 19 kts | 0° |
| 2026-05-05 01:29 | 32.89513 | -97.03319 | 576 ft | 21 kts | 0° |
| 2026-05-05 01:30 | 32.89663 | -97.03316 | 578 ft | 21 kts | 360° |
| 2026-05-05 01:30 | 32.89822 | -97.03316 | 579 ft | 23 kts | 0° |
| 2026-05-05 01:30 | 32.89988 | -97.03315 | 581 ft | 24 kts | 0° |
| 2026-05-05 01:30 | 32.90163 | -97.03315 | 582 ft | 25 kts | 0° |
| 2026-05-05 01:31 | 32.90343 | -97.03313 | 584 ft | 25 kts | 0° |
| 2026-05-05 01:31 | 32.90527 | -97.03313 | 585 ft | 27 kts | 0° |
| 2026-05-05 01:31 | 32.90714 | -97.03311 | 587 ft | 26 kts | 0° |
| 2026-05-05 01:31 | 32.90897 | -97.03310 | 585 ft | 26 kts | 360° |
| 2026-05-05 01:32 | 32.91072 | -97.03276 | 582 ft | 24 kts | 4° |
| 2026-05-05 01:32 | 32.91237 | -97.03275 | 580 ft | 22 kts | 0° |
| 2026-05-05 01:32 | 32.91394 | -97.03274 | 577 ft | 20 kts | 0° |
| 2026-05-05 01:32 | 32.91484 | -97.03215 | 574 ft | 15 kts | 85° |
| 2026-05-05 01:33 | 32.91485 | -97.03120 | 572 ft | 0 kts | 91° |
| 2026-05-05 01:33 | 32.91485 | -97.03107 | 572 ft | 6 kts | 91° |
| 2026-05-05 01:34 | 32.91483 | -97.03023 | 570 ft | 8 kts | 92° |
| 2026-05-05 01:34 | 32.91457 | -97.02992 | 570 ft | 5 kts | 171° |
| 2026-05-05 01:34 | 32.91448 | -97.02991 | 570 ft | 0 kts | 180° |
| 2026-05-05 01:35 | 32.91445 | -97.02991 | 570 ft | 5 kts | 180° |
| 2026-05-05 01:35 | 32.91169 | -97.02990 | 573 ft | 73 kts | 181° |
| 2026-05-05 01:35 | 32.90440 | -97.02994 | 575 ft | 133 kts | 180° |
| 2026-05-05 01:35 | 32.89354 | -97.02998 | 620 ft | 175 kts | 181° |
| 2026-05-05 01:36 | 32.88130 | -97.03004 | 1274 ft | 173 kts | 179° |
| 2026-05-05 01:36 | 32.86999 | -97.02967 | 2189 ft | 162 kts | 180° |
| 2026-05-05 01:36 | 32.85915 | -97.02886 | 2812 ft | 157 kts | 179° |
| 2026-05-05 01:36 | 32.84781 | -97.02750 | 3058 ft | 171 kts | 174° |
| 2026-05-05 01:37 | 32.83599 | -97.02262 | 3310 ft | 188 kts | 163° |
| 2026-05-05 01:37 | 32.82355 | -97.01612 | 3570 ft | 202 kts | 162° |
| 2026-05-05 01:37 | 32.80997 | -97.00910 | 3760 ft | 222 kts | 162° |
| 2026-05-05 01:37 | 32.79531 | -97.00153 | 4082 ft | 237 kts | 159° |
| 2026-05-05 01:38 | 32.78208 | -96.98888 | 4518 ft | 257 kts | 134° |
| 2026-05-05 01:38 | 32.77338 | -96.96941 | 4862 ft | 279 kts | 116° |
| 2026-05-05 01:38 | 32.76714 | -96.94688 | 5343 ft | 291 kts | 106° |
| 2026-05-05 01:38 | 32.76465 | -96.92292 | 5897 ft | 300 kts | 92° |
| 2026-05-05 01:39 | 32.76527 | -96.89796 | 6494 ft | 306 kts | 88° |
| 2026-05-05 01:39 | 32.76663 | -96.87281 | 7112 ft | 310 kts | 87° |
| 2026-05-05 01:39 | 32.76807 | -96.84706 | 7735 ft | 314 kts | 84° |
| 2026-05-05 01:39 | 32.77142 | -96.82139 | 8364 ft | 317 kts | 76° |
| 2026-05-05 01:40 | 32.77721 | -96.79627 | 8980 ft | 319 kts | 71° |
| 2026-05-05 01:40 | 32.78385 | -96.77112 | 9605 ft | 322 kts | 70° |
| 2026-05-05 01:40 | 32.79071 | -96.74567 | 10214 ft | 324 kts | 70° |
| 2026-05-05 01:40 | 32.79754 | -96.72006 | 10592 ft | 336 kts | 70° |
| 2026-05-05 01:41 | 32.80476 | -96.69275 | 10867 ft | 351 kts | 70° |
| 2026-05-05 01:41 | 32.81213 | -96.66460 | 11119 ft | 365 kts | 70° |
| 2026-05-05 01:41 | 32.81974 | -96.63528 | 11358 ft | 379 kts | 70° |
| 2026-05-05 01:41 | 32.82758 | -96.60496 | 11593 ft | 393 kts | 70° |
| 2026-05-05 01:42 | 32.83565 | -96.57368 | 11806 ft | 405 kts | 71° |
| 2026-05-05 01:42 | 32.84409 | -96.54089 | 12013 ft | 417 kts | 70° |
| 2026-05-05 01:42 | 32.85258 | -96.50785 | 12211 ft | 427 kts | 71° |
| 2026-05-05 01:42 | 32.86130 | -96.47392 | 12416 ft | 437 kts | 71° |
| 2026-05-05 01:43 | 32.87019 | -96.43911 | 12788 ft | 441 kts | 70° |
| 2026-05-05 01:43 | 32.87919 | -96.40388 | 13233 ft | 443 kts | 70° |
| 2026-05-05 01:43 | 32.88801 | -96.36932 | 13701 ft | 444 kts | 70° |
| 2026-05-05 01:43 | 32.89745 | -96.33376 | 14103 ft | 446 kts | 69° |
| 2026-05-05 01:44 | 32.90822 | -96.29904 | 14482 ft | 448 kts | 66° |
| 2026-05-05 01:44 | 32.91952 | -96.26419 | 14879 ft | 451 kts | 66° |
| 2026-05-05 01:44 | 32.93080 | -96.22970 | 15283 ft | 453 kts | 66° |
| 2026-05-05 01:44 | 32.94230 | -96.19447 | 15671 ft | 456 kts | 66° |
| 2026-05-05 01:45 | 32.95366 | -96.15955 | 16011 ft | 459 kts | 66° |
| 2026-05-05 01:45 | 32.96522 | -96.12394 | 16379 ft | 461 kts | 66° |
| 2026-05-05 01:45 | 32.97683 | -96.08808 | 16704 ft | 465 kts | 66° |
| 2026-05-05 01:45 | 32.98838 | -96.05231 | 17038 ft | 468 kts | 66° |
| 2026-05-05 01:46 | 33.00011 | -96.01588 | 17395 ft | 470 kts | 66° |
| 2026-05-05 01:46 | 33.01183 | -95.97951 | 17719 ft | 472 kts | 66° |
| 2026-05-05 01:46 | 33.02346 | -95.94328 | 18048 ft | 474 kts | 65° |
| 2026-05-05 01:46 | 33.03536 | -95.90619 | 18339 ft | 477 kts | 65° |
| 2026-05-05 01:47 | 33.04721 | -95.86928 | 18595 ft | 480 kts | 65° |
| 2026-05-05 01:47 | 33.05909 | -95.83218 | 18853 ft | 483 kts | 65° |
| 2026-05-05 01:47 | 33.07113 | -95.79472 | 19125 ft | 486 kts | 65° |
| 2026-05-05 01:47 | 33.08336 | -95.75673 | 19370 ft | 489 kts | 64° |
| 2026-05-05 01:48 | 33.09546 | -95.71906 | 19655 ft | 491 kts | 64° |
| 2026-05-05 01:48 | 33.10782 | -95.68055 | 19894 ft | 494 kts | 64° |
| 2026-05-05 01:48 | 33.12005 | -95.64230 | 20144 ft | 497 kts | 64° |
| 2026-05-05 01:48 | 33.13258 | -95.60320 | 20385 ft | 500 kts | 64° |
| 2026-05-05 01:49 | 33.14481 | -95.56485 | 20702 ft | 501 kts | 64° |
| 2026-05-05 01:49 | 33.15730 | -95.52563 | 20952 ft | 504 kts | 64° |
| 2026-05-05 01:49 | 33.16970 | -95.48668 | 21175 ft | 507 kts | 64° |
| 2026-05-05 01:49 | 33.18219 | -95.44738 | 21467 ft | 508 kts | 64° |
| 2026-05-05 01:50 | 33.19478 | -95.40773 | 21721 ft | 510 kts | 64° |
| 2026-05-05 01:50 | 33.20729 | -95.36828 | 21953 ft | 513 kts | 64° |
| 2026-05-05 01:50 | 33.22000 | -95.32816 | 22178 ft | 515 kts | 65° |
| 2026-05-05 01:50 | 33.23277 | -95.28788 | 22349 ft | 518 kts | 64° |
| 2026-05-05 01:51 | 33.24554 | -95.24731 | 22603 ft | 519 kts | 65° |
| 2026-05-05 01:51 | 33.25810 | -95.20747 | 22918 ft | 518 kts | 64° |
| 2026-05-05 01:51 | 33.27074 | -95.16727 | 23259 ft | 518 kts | 64° |
| 2026-05-05 01:51 | 33.28341 | -95.12688 | 23580 ft | 517 kts | 64° |
| 2026-05-05 01:52 | 33.29610 | -95.08650 | 23870 ft | 518 kts | 64° |
| 2026-05-05 01:52 | 33.30861 | -95.04669 | 24125 ft | 518 kts | 64° |
| 2026-05-05 01:52 | 33.32123 | -95.00634 | 24451 ft | 518 kts | 64° |
| 2026-05-05 01:52 | 33.33381 | -94.96616 | 24782 ft | 518 kts | 63° |
| 2026-05-05 01:53 | 33.34648 | -94.92555 | 25088 ft | 518 kts | 63° |
| 2026-05-05 01:53 | 33.35901 | -94.88538 | 25378 ft | 518 kts | 63° |
| 2026-05-05 01:53 | 33.37151 | -94.84529 | 25670 ft | 518 kts | 63° |
| 2026-05-05 01:53 | 33.38403 | -94.80510 | 25984 ft | 518 kts | 63° |
| 2026-05-05 01:54 | 33.39659 | -94.76464 | 26310 ft | 517 kts | 62° |
| 2026-05-05 01:54 | 33.40915 | -94.72419 | 26642 ft | 517 kts | 62° |
| 2026-05-05 01:54 | 33.42161 | -94.68401 | 26965 ft | 516 kts | 62° |
| 2026-05-05 01:54 | 33.43409 | -94.64371 | 27274 ft | 517 kts | 62° |
| 2026-05-05 01:55 | 33.44640 | -94.60394 | 27533 ft | 518 kts | 62° |
| 2026-05-05 01:55 | 33.45885 | -94.56367 | 27806 ft | 518 kts | 62° |
| 2026-05-05 01:55 | 33.47130 | -94.52322 | 28126 ft | 518 kts | 61° |
| 2026-05-05 01:55 | 33.48383 | -94.48256 | 28431 ft | 518 kts | 61° |
| 2026-05-05 01:56 | 33.49622 | -94.44222 | 28736 ft | 517 kts | 60° |
| 2026-05-05 01:56 | 33.50854 | -94.40202 | 29057 ft | 517 kts | 60° |
| 2026-05-05 01:56 | 33.52089 | -94.36179 | 29337 ft | 517 kts | 60° |
| 2026-05-05 01:56 | 33.53342 | -94.32093 | 29596 ft | 518 kts | 61° |
| 2026-05-05 01:57 | 33.54584 | -94.28036 | 29848 ft | 518 kts | 60° |
| 2026-05-05 01:57 | 33.55808 | -94.24013 | 30057 ft | 520 kts | 61° |
| 2026-05-05 01:57 | 33.57035 | -94.19928 | 30274 ft | 521 kts | 61° |
| 2026-05-05 01:57 | 33.58246 | -94.15848 | 30608 ft | 519 kts | 61° |
| 2026-05-05 01:58 | 33.59444 | -94.11816 | 30865 ft | 519 kts | 60° |
| 2026-05-05 01:58 | 33.60665 | -94.07712 | 30957 ft | 523 kts | 60° |
| 2026-05-05 01:58 | 33.63148 | -93.99364 | 31151 ft | 530 kts | 61° |
| 2026-05-05 01:59 | 33.65618 | -93.91026 | 31330 ft | 537 kts | 60° |
| 2026-05-05 01:59 | 33.68122 | -93.82537 | 31491 ft | 542 kts | 60° |
| 2026-05-05 02:00 | 33.69365 | -93.78308 | 31603 ft | 543 kts | 60° |
| 2026-05-05 02:00 | 33.70623 | -93.74032 | 31760 ft | 543 kts | 60° |
| 2026-05-05 02:00 | 33.71881 | -93.69745 | 31926 ft | 543 kts | 60° |
| 2026-05-05 02:00 | 33.73136 | -93.65453 | 32071 ft | 544 kts | 60° |
| 2026-05-05 02:01 | 33.74375 | -93.61219 | 32219 ft | 544 kts | 60° |
| 2026-05-05 02:01 | 33.75628 | -93.56930 | 32358 ft | 545 kts | 60° |
| 2026-05-05 02:01 | 33.76883 | -93.52631 | 32519 ft | 545 kts | 60° |
| 2026-05-05 02:01 | 33.78113 | -93.48395 | 32893 ft | 539 kts | 60° |
| 2026-05-05 02:02 | 33.79330 | -93.44178 | 33538 ft | 528 kts | 59° |
| 2026-05-05 02:02 | 33.80521 | -93.40048 | 34276 ft | 518 kts | 59° |
| 2026-05-05 02:02 | 33.81697 | -93.35989 | 34779 ft | 512 kts | 58° |
| 2026-05-05 02:02 | 33.82875 | -93.31961 | 34862 ft | 515 kts | 59° |
| 2026-05-05 02:03 | 33.85261 | -93.23797 | 34871 ft | 523 kts | 59° |
| 2026-05-05 02:03 | 33.87643 | -93.15528 | 34872 ft | 529 kts | 59° |
| 2026-05-05 02:04 | 33.90151 | -93.07225 | 34875 ft | 523 kts | 55° |
| 2026-05-05 02:04 | 33.93067 | -92.99347 | 34879 ft | 516 kts | 53° |
| 2026-05-05 02:05 | 33.96087 | -92.91420 | 34880 ft | 516 kts | 53° |
| 2026-05-05 02:05 | 33.99036 | -92.83617 | 34877 ft | 515 kts | 53° |
| 2026-05-05 02:06 | 34.01983 | -92.75769 | 34879 ft | 515 kts | 53° |
| 2026-05-05 02:06 | 34.04922 | -92.67912 | 34881 ft | 516 kts | 53° |
| 2026-05-05 02:07 | 34.07876 | -92.60002 | 34885 ft | 518 kts | 53° |
| 2026-05-05 02:07 | 34.10826 | -92.52084 | 34883 ft | 523 kts | 53° |
| 2026-05-05 02:08 | 34.13820 | -92.44027 | 34877 ft | 527 kts | 53° |
| 2026-05-05 02:08 | 34.16777 | -92.36015 | 34870 ft | 523 kts | 53° |
| 2026-05-05 02:09 | 34.19736 | -92.28011 | 34879 ft | 523 kts | 53° |
| 2026-05-05 02:09 | 34.22700 | -92.19977 | 34879 ft | 525 kts | 53° |
| 2026-05-05 02:10 | 34.25650 | -92.11943 | 34891 ft | 524 kts | 54° |
| 2026-05-05 02:10 | 34.28599 | -92.03899 | 34885 ft | 525 kts | 53° |
| 2026-05-05 02:11 | 34.31534 | -91.95870 | 34882 ft | 523 kts | 53° |
| 2026-05-05 02:11 | 34.34470 | -91.87836 | 34885 ft | 524 kts | 53° |
| 2026-05-05 02:12 | 34.38868 | -91.75743 | 34887 ft | 524 kts | 54° |
| 2026-05-05 02:13 | 34.41792 | -91.67680 | 34895 ft | 525 kts | 53° |
| 2026-05-05 02:13 | 34.44712 | -91.59600 | 34893 ft | 523 kts | 53° |
| 2026-05-05 02:14 | 34.47606 | -91.51580 | 34894 ft | 523 kts | 53° |
| 2026-05-05 02:14 | 34.50529 | -91.43468 | 34899 ft | 525 kts | 53° |
| 2026-05-05 02:15 | 34.53432 | -91.35374 | 34900 ft | 523 kts | 53° |
| 2026-05-05 02:15 | 34.56345 | -91.27244 | 34900 ft | 525 kts | 54° |
| 2026-05-05 02:16 | 34.59228 | -91.19159 | 34899 ft | 524 kts | 54° |
| 2026-05-05 02:16 | 34.62125 | -91.11043 | 34895 ft | 526 kts | 54° |
| 2026-05-05 02:17 | 34.65023 | -91.02893 | 34894 ft | 530 kts | 54° |
| 2026-05-05 02:17 | 34.67927 | -90.94680 | 34894 ft | 526 kts | 54° |
| 2026-05-05 02:18 | 34.70812 | -90.86523 | 34893 ft | 527 kts | 54° |
| 2026-05-05 02:18 | 34.73674 | -90.78405 | 34892 ft | 528 kts | 54° |
| 2026-05-05 02:19 | 34.76567 | -90.70190 | 34893 ft | 529 kts | 54° |
| 2026-05-05 02:19 | 34.79440 | -90.61986 | 34901 ft | 528 kts | 54° |
| 2026-05-05 02:20 | 34.82294 | -90.53819 | 34901 ft | 526 kts | 54° |
| 2026-05-05 02:20 | 34.85159 | -90.45611 | 34897 ft | 524 kts | 54° |
| 2026-05-05 02:21 | 34.88010 | -90.37440 | 34897 ft | 528 kts | 54° |
| 2026-05-05 02:21 | 34.90886 | -90.29150 | 34900 ft | 528 kts | 54° |
| 2026-05-05 02:22 | 34.93746 | -90.20866 | 34904 ft | 528 kts | 54° |
| 2026-05-05 02:22 | 34.96599 | -90.12603 | 34917 ft | 527 kts | 54° |
| 2026-05-05 02:23 | 34.99116 | -90.04146 | 34919 ft | 543 kts | 64° |
| 2026-05-05 02:23 | 34.99913 | -89.99557 | 34924 ft | 555 kts | 71° |
| 2026-05-05 02:23 | 35.00316 | -89.94818 | 34921 ft | 565 kts | 79° |
| 2026-05-05 02:24 | 34.99856 | -89.85147 | 34923 ft | 581 kts | 93° |
| 2026-05-05 02:24 | 34.98419 | -89.75446 | 34930 ft | 580 kts | 94° |
| 2026-05-05 02:25 | 34.96961 | -89.65844 | 34928 ft | 578 kts | 95° |
| 2026-05-05 02:25 | 34.95556 | -89.56190 | 34929 ft | 578 kts | 94° |
| 2026-05-05 02:26 | 34.94181 | -89.46600 | 34931 ft | 577 kts | 93° |
| 2026-05-05 02:26 | 34.92808 | -89.37010 | 34932 ft | 577 kts | 94° |
| 2026-05-05 02:27 | 34.91423 | -89.27434 | 34934 ft | 573 kts | 94° |
| 2026-05-05 02:27 | 34.90037 | -89.17909 | 34939 ft | 572 kts | 94° |
| 2026-05-05 02:28 | 34.88646 | -89.08356 | 34939 ft | 573 kts | 94° |
| 2026-05-05 02:28 | 34.87241 | -88.98834 | 34948 ft | 571 kts | 94° |
| 2026-05-05 02:29 | 34.85845 | -88.89379 | 34952 ft | 570 kts | 94° |
| 2026-05-05 02:29 | 34.84435 | -88.79896 | 34948 ft | 568 kts | 94° |
| 2026-05-05 02:30 | 34.83024 | -88.70438 | 34958 ft | 569 kts | 94° |
| 2026-05-05 02:30 | 34.81595 | -88.60970 | 34961 ft | 568 kts | 94° |
| 2026-05-05 02:31 | 34.80183 | -88.51598 | 34959 ft | 566 kts | 94° |
| 2026-05-05 02:31 | 34.78751 | -88.42186 | 34967 ft | 566 kts | 93° |
| 2026-05-05 02:32 | 34.77326 | -88.32827 | 34955 ft | 563 kts | 95° |
| 2026-05-05 02:32 | 34.75909 | -88.23617 | 34965 ft | 555 kts | 95° |
| 2026-05-05 02:33 | 34.74486 | -88.14401 | 34966 ft | 553 kts | 95° |
| 2026-05-05 02:33 | 34.73077 | -88.05334 | 34954 ft | 550 kts | 95° |
| 2026-05-05 02:34 | 34.71656 | -87.96184 | 34971 ft | 549 kts | 94° |
| 2026-05-05 02:34 | 34.70238 | -87.87115 | 34977 ft | 550 kts | 95° |
| 2026-05-05 02:35 | 34.68804 | -87.78037 | 34973 ft | 547 kts | 95° |
| 2026-05-05 02:35 | 34.67372 | -87.68971 | 34971 ft | 550 kts | 95° |
| 2026-05-05 02:35 | 34.66642 | -87.64406 | 34642 ft | 548 kts | 95° |
| 2026-05-05 02:36 | 34.65927 | -87.59887 | 34235 ft | 547 kts | 95° |
| 2026-05-05 02:36 | 34.65205 | -87.55381 | 33824 ft | 545 kts | 95° |
| 2026-05-05 02:36 | 34.64488 | -87.50875 | 33445 ft | 544 kts | 96° |
| 2026-05-05 02:36 | 34.63763 | -87.46367 | 33134 ft | 542 kts | 96° |
| 2026-05-05 02:37 | 34.63043 | -87.41914 | 32989 ft | 540 kts | 97° |
| 2026-05-05 02:37 | 34.61422 | -87.32986 | 32977 ft | 538 kts | 98° |
| 2026-05-05 02:38 | 34.59753 | -87.24061 | 32981 ft | 537 kts | 98° |
| 2026-05-05 02:38 | 34.58109 | -87.15173 | 32991 ft | 536 kts | 98° |
| 2026-05-05 02:39 | 34.56504 | -87.06379 | 33001 ft | 535 kts | 97° |
| 2026-05-05 02:39 | 34.55006 | -86.97579 | 32990 ft | 533 kts | 97° |
| 2026-05-05 02:40 | 34.53123 | -86.88835 | 33003 ft | 536 kts | 103° |
| 2026-05-05 02:40 | 34.50863 | -86.80208 | 33000 ft | 534 kts | 104° |
| 2026-05-05 02:41 | 34.48609 | -86.71644 | 33000 ft | 532 kts | 104° |
| 2026-05-05 02:41 | 34.46378 | -86.63113 | 32996 ft | 533 kts | 104° |
| 2026-05-05 02:42 | 34.44155 | -86.54625 | 33003 ft | 531 kts | 104° |
| 2026-05-05 02:42 | 34.41924 | -86.46139 | 33008 ft | 530 kts | 104° |
| 2026-05-05 02:43 | 34.39684 | -86.37638 | 32994 ft | 530 kts | 104° |
| 2026-05-05 02:43 | 34.37448 | -86.29181 | 33008 ft | 528 kts | 105° |
| 2026-05-05 02:44 | 34.35210 | -86.20753 | 33013 ft | 527 kts | 105° |
| 2026-05-05 02:44 | 34.32972 | -86.12310 | 33017 ft | 525 kts | 104° |
| 2026-05-05 02:45 | 34.30809 | -86.03957 | 33001 ft | 524 kts | 104° |
| 2026-05-05 02:45 | 34.28629 | -85.95533 | 33015 ft | 524 kts | 104° |
| 2026-05-05 02:46 | 34.26450 | -85.87148 | 33021 ft | 524 kts | 105° |
| 2026-05-05 02:46 | 34.24263 | -85.78784 | 33014 ft | 523 kts | 104° |
| 2026-05-05 02:47 | 34.22088 | -85.70485 | 33020 ft | 521 kts | 104° |
| 2026-05-05 02:47 | 34.19888 | -85.62122 | 33012 ft | 521 kts | 104° |
| 2026-05-05 02:48 | 34.17715 | -85.53861 | 33033 ft | 519 kts | 105° |
| 2026-05-05 02:48 | 34.16620 | -85.49715 | 32773 ft | 513 kts | 105° |
| 2026-05-05 02:48 | 34.15540 | -85.45634 | 31886 ft | 513 kts | 105° |
| 2026-05-05 02:48 | 34.14466 | -85.41555 | 30737 ft | 514 kts | 106° |
| 2026-05-05 02:49 | 34.13405 | -85.37517 | 29677 ft | 507 kts | 107° |
| 2026-05-05 02:49 | 34.12363 | -85.33517 | 28949 ft | 490 kts | 107° |
| 2026-05-05 02:49 | 34.11352 | -85.29617 | 27766 ft | 486 kts | 107° |
| 2026-05-05 02:49 | 34.10344 | -85.25718 | 25892 ft | 497 kts | 107° |
| 2026-05-05 02:50 | 34.09328 | -85.21798 | 23763 ft | 506 kts | 107° |
| 2026-05-05 02:50 | 34.08282 | -85.17773 | 21930 ft | 502 kts | 108° |
| 2026-05-05 02:50 | 34.07259 | -85.13841 | 20842 ft | 483 kts | 108° |
| 2026-05-05 02:50 | 34.06282 | -85.10097 | 19587 ft | 469 kts | 108° |
| 2026-05-05 02:51 | 34.05049 | -85.06523 | 18175 ft | 457 kts | 120° |
| 2026-05-05 02:51 | 34.03268 | -85.03477 | 16829 ft | 444 kts | 133° |
| 2026-05-05 02:51 | 34.01108 | -85.00975 | 15572 ft | 431 kts | 141° |
| 2026-05-05 02:51 | 33.98847 | -84.98656 | 14253 ft | 423 kts | 142° |
| 2026-05-05 02:52 | 33.96633 | -84.96414 | 13265 ft | 411 kts | 141° |
| 2026-05-05 02:52 | 33.94430 | -84.94164 | 12988 ft | 413 kts | 141° |
| 2026-05-05 02:52 | 33.92259 | -84.91926 | 12755 ft | 411 kts | 141° |
| 2026-05-05 02:52 | 33.90483 | -84.90093 | 12555 ft | 410 kts | 141° |
| 2026-05-05 02:53 | 33.90330 | -84.89934 | 12537 ft | 410 kts | 141° |
| 2026-05-05 02:53 | 33.88148 | -84.87677 | 12293 ft | 409 kts | 141° |
| 2026-05-05 02:53 | 33.86011 | -84.85466 | 11994 ft | 408 kts | 141° |
| 2026-05-05 02:53 | 33.83844 | -84.83225 | 11623 ft | 405 kts | 141° |
| 2026-05-05 02:54 | 33.81732 | -84.81040 | 11261 ft | 403 kts | 141° |
| 2026-05-05 02:54 | 33.79598 | -84.78835 | 10887 ft | 400 kts | 141° |
| 2026-05-05 02:54 | 33.77503 | -84.76676 | 10518 ft | 393 kts | 141° |
| 2026-05-05 02:54 | 33.75520 | -84.74515 | 10135 ft | 383 kts | 134° |
| 2026-05-05 02:55 | 33.74057 | -84.71880 | 9761 ft | 376 kts | 116° |
| 2026-05-05 02:55 | 33.73305 | -84.68966 | 9388 ft | 360 kts | 100° |
| 2026-05-05 02:55 | 33.73171 | -84.66026 | 9020 ft | 343 kts | 91° |
| 2026-05-05 02:55 | 33.73207 | -84.63263 | 8651 ft | 326 kts | 90° |
| 2026-05-05 02:56 | 33.73251 | -84.60571 | 8278 ft | 312 kts | 90° |
| 2026-05-05 02:56 | 33.73278 | -84.58038 | 7908 ft | 299 kts | 91° |
| 2026-05-05 02:56 | 33.73290 | -84.55584 | 7539 ft | 291 kts | 91° |
| 2026-05-05 02:56 | 33.73293 | -84.53170 | 7170 ft | 288 kts | 91° |
| 2026-05-05 02:57 | 33.73294 | -84.50774 | 6802 ft | 287 kts | 92° |
| 2026-05-05 02:57 | 33.73291 | -84.48388 | 6435 ft | 285 kts | 91° |
| 2026-05-05 02:57 | 33.73289 | -84.46014 | 6066 ft | 284 kts | 92° |
| 2026-05-05 02:57 | 33.73289 | -84.43658 | 5696 ft | 282 kts | 92° |
| 2026-05-05 02:58 | 33.73290 | -84.41316 | 5329 ft | 281 kts | 92° |
| 2026-05-05 02:58 | 33.73290 | -84.38985 | 4964 ft | 280 kts | 92° |
| 2026-05-05 02:58 | 33.73289 | -84.36626 | 4593 ft | 279 kts | 92° |
| 2026-05-05 02:58 | 33.73290 | -84.34298 | 4224 ft | 278 kts | 93° |
| 2026-05-05 02:59 | 33.73289 | -84.31971 | 3855 ft | 277 kts | 93° |
| 2026-05-05 02:59 | 33.73289 | -84.29661 | 3488 ft | 276 kts | 93° |
| 2026-05-05 02:59 | 33.73292 | -84.27352 | 3128 ft | 275 kts | 93° |
| 2026-05-05 02:59 | 33.73294 | -84.25105 | 2999 ft | 264 kts | 93° |
| 2026-05-05 03:00 | 33.73298 | -84.22957 | 2990 ft | 248 kts | 93° |
| 2026-05-05 03:00 | 33.73302 | -84.20949 | 2980 ft | 234 kts | 93° |
| 2026-05-05 03:00 | 33.73306 | -84.19067 | 2982 ft | 225 kts | 94° |
| 2026-05-05 03:00 | 33.73305 | -84.17166 | 2992 ft | 225 kts | 94° |
| 2026-05-05 03:01 | 33.73304 | -84.15296 | 2997 ft | 224 kts | 94° |
| 2026-05-05 03:01 | 33.73303 | -84.13431 | 2998 ft | 224 kts | 94° |
| 2026-05-05 03:01 | 33.73304 | -84.11553 | 3000 ft | 224 kts | 94° |
| 2026-05-05 03:01 | 33.73305 | -84.09678 | 2998 ft | 224 kts | 94° |
| 2026-05-05 03:02 | 33.73011 | -84.07884 | 2964 ft | 216 kts | 126° |
| 2026-05-05 03:02 | 33.71890 | -84.06801 | 2988 ft | 208 kts | 166° |
| 2026-05-05 03:02 | 33.70484 | -84.06709 | 3003 ft | 203 kts | 193° |
| 2026-05-05 03:02 | 33.69251 | -84.07382 | 2984 ft | 187 kts | 218° |
| 2026-05-05 03:03 | 33.68380 | -84.08474 | 3072 ft | 177 kts | 226° |
| 2026-05-05 03:03 | 33.67575 | -84.09565 | 3028 ft | 175 kts | 226° |
| 2026-05-05 03:03 | 33.66761 | -84.10644 | 3007 ft | 174 kts | 225° |
| 2026-05-05 03:03 | 33.65941 | -84.11718 | 3005 ft | 174 kts | 225° |
| 2026-05-05 03:04 | 33.65221 | -84.12912 | 2990 ft | 178 kts | 243° |
| 2026-05-05 03:04 | 33.64957 | -84.14357 | 3001 ft | 182 kts | 260° |
| 2026-05-05 03:04 | 33.64926 | -84.15892 | 3005 ft | 184 kts | 266° |
| 2026-05-05 03:04 | 33.64959 | -84.17431 | 3000 ft | 184 kts | 267° |
| 2026-05-05 03:05 | 33.64988 | -84.18968 | 3001 ft | 184 kts | 266° |
| 2026-05-05 03:05 | 33.65000 | -84.20493 | 3000 ft | 184 kts | 266° |
| 2026-05-05 03:05 | 33.65001 | -84.22038 | 3000 ft | 184 kts | 265° |
| 2026-05-05 03:05 | 33.64996 | -84.23573 | 3002 ft | 185 kts | 266° |
| 2026-05-05 03:06 | 33.64989 | -84.25113 | 3002 ft | 185 kts | 265° |
| 2026-05-05 03:06 | 33.64982 | -84.26669 | 3002 ft | 184 kts | 265° |
| 2026-05-05 03:06 | 33.64978 | -84.28190 | 2998 ft | 183 kts | 265° |
| 2026-05-05 03:06 | 33.64975 | -84.29658 | 2835 ft | 169 kts | 266° |
| 2026-05-05 03:07 | 33.64973 | -84.31018 | 2594 ft | 157 kts | 266° |
| 2026-05-05 03:07 | 33.64968 | -84.32320 | 2404 ft | 157 kts | 266° |
| 2026-05-05 03:07 | 33.64963 | -84.33639 | 2217 ft | 155 kts | 267° |
| 2026-05-05 03:07 | 33.64962 | -84.34905 | 2018 ft | 150 kts | 267° |
| 2026-05-05 03:08 | 33.64961 | -84.36160 | 1813 ft | 149 kts | 266° |
| 2026-05-05 03:08 | 33.64954 | -84.37389 | 1603 ft | 149 kts | 267° |
| 2026-05-05 03:08 | 33.64955 | -84.38630 | 1406 ft | 148 kts | 266° |
| 2026-05-05 03:08 | 33.64941 | -84.39861 | 1236 ft | 147 kts | 268° |
| 2026-05-05 03:09 | 33.64946 | -84.41087 | 1061 ft | 146 kts | 269° |
| 2026-05-05 03:09 | 33.64948 | -84.42239 | 1014 ft | 118 kts | 271° |
| 2026-05-05 03:09 | 33.64951 | -84.42911 | 1019 ft | 52 kts | 270° |
| 2026-05-05 03:09 | 33.64881 | -84.43282 | 1024 ft | 37 kts | 247° |
| 2026-05-05 03:10 | 33.64842 | -84.43549 | 1026 ft | 30 kts | 270° |
| 2026-05-05 03:10 | 33.64842 | -84.43774 | 1030 ft | 25 kts | 269° |
| 2026-05-05 03:10 | 33.64792 | -84.43958 | 1033 ft | 22 kts | 260° |
| 2026-05-05 03:10 | 33.64782 | -84.44119 | 1030 ft | 16 kts | 269° |
| 2026-05-05 03:11 | 33.64775 | -84.44261 | 1027 ft | 17 kts | 246° |
| 2026-05-05 03:11 | 33.64674 | -84.44335 | 1026 ft | 18 kts | 176° |
| 2026-05-05 03:11 | 33.64579 | -84.44257 | 1029 ft | 16 kts | 107° |
| 2026-05-05 03:11 | 33.64550 | -84.44117 | 1024 ft | 19 kts | 118° |
| 2026-05-05 03:12 | 33.64505 | -84.43990 | 1024 ft | 16 kts | 90° |
| 2026-05-05 03:12 | 33.64518 | -84.43874 | 1024 ft | 10 kts | 82° |
| 2026-05-05 03:12 | 33.64482 | -84.43813 | 1024 ft | 10 kts | 160° |
| 2026-05-05 03:12 | 33.64410 | -84.43789 | 1024 ft | 10 kts | 174° |
| 2026-05-05 03:13 | 33.64340 | -84.43785 | 1024 ft | 7 kts | 179° |
| 2026-05-05 03:13 | 33.64307 | -84.43813 | 1024 ft | 6 kts | 259° |
| 2026-05-05 03:13 | 33.64304 | -84.43855 | 1024 ft | 2 kts | 269° |
| 2026-05-05 03:13 | 33.64304 | -84.43864 | 1024 ft | 0 kts | 271° |